createdAt,value
2022-08-05T00:01:27.887Z,18.29
2022-08-05T00:03:57.158Z,18.30
2022-08-05T00:06:29.508Z,18.30
2022-08-05T00:09:00.079Z,18.29
2022-08-05T00:11:30.226Z,18.28
2022-08-05T00:14:00.921Z,18.26
2022-08-05T00:16:36.497Z,18.26
2022-08-05T00:19:15.080Z,18.26
2022-08-05T00:21:42.718Z,18.26
2022-08-05T00:24:10.461Z,18.24
2022-08-05T00:26:38.272Z,18.21
2022-08-05T00:29:04.645Z,18.18
2022-08-05T00:31:54.113Z,18.16
2022-08-05T00:34:54.816Z,18.22
2022-08-05T00:37:10.450Z,18.23
2022-08-05T00:39:41.510Z,18.22
2022-08-05T00:42:11.067Z,18.19
2022-08-05T00:44:57.448Z,18.21
2022-08-05T00:47:24.039Z,18.19
2022-08-05T00:49:51.798Z,18.18
2022-08-05T00:52:28.215Z,18.15
2022-08-05T00:54:55.247Z,18.14
2022-08-05T00:57:25.139Z,18.12
2022-08-05T00:59:51.925Z,18.07
2022-08-05T01:02:18.425Z,18.08
2022-08-05T01:04:44.805Z,18.07
2022-08-05T01:07:17.993Z,18.03
2022-08-05T01:09:44.625Z,18.02
2022-08-05T01:12:18.472Z,18.04
2022-08-05T01:14:53.301Z,18.02
2022-08-05T01:17:27.720Z,18.06
2022-08-05T01:20:13.704Z,18.06
2022-08-05T01:23:23.242Z,18.09
2022-08-05T01:26:18.733Z,18.08
2022-08-05T01:29:00.591Z,18.08
2022-08-05T01:31:42.632Z,18.09
2022-08-05T01:34:44.677Z,18.08
2022-08-05T01:37:25.443Z,18.09
2022-08-05T01:39:59.200Z,18.09
2022-08-05T01:42:27.643Z,18.09
2022-08-05T01:44:56.849Z,18.07
2022-08-05T01:47:39.068Z,18.06
2022-08-05T01:50:15.255Z,18.04
2022-08-05T01:52:43.969Z,18.04
2022-08-05T01:55:13.336Z,18.03
2022-08-05T01:58:10.895Z,18.02
2022-08-05T02:00:33.589Z,18.01
2022-08-05T02:03:16.356Z,18.00
2022-08-05T02:05:57.953Z,18.00
2022-08-05T02:08:30.781Z,17.99
2022-08-05T02:11:11.739Z,18.00
2022-08-05T02:13:53.963Z,18.01
2022-08-05T02:16:54.395Z,18.01
2022-08-05T02:19:27.364Z,18.03
2022-08-05T02:22:09.135Z,18.05
2022-08-05T02:24:51.512Z,18.07
2022-08-05T02:27:21.799Z,18.09
2022-08-05T02:30:00.901Z,18.08
2022-08-05T02:32:31.451Z,18.05
2022-08-05T02:35:13.375Z,18.02
2022-08-05T02:37:43.197Z,17.99
2022-08-05T02:40:16.961Z,18.00
2022-08-05T02:42:52.786Z,18.01
2022-08-05T02:45:24.063Z,18.01
2022-08-05T02:48:06.640Z,18.02
2022-08-05T02:50:39.287Z,18.00
2022-08-05T02:53:11.918Z,18.00
2022-08-05T02:55:59.550Z,17.99
2022-08-05T02:58:28.863Z,17.96
2022-08-05T03:01:00.774Z,17.95
2022-08-05T03:03:33.904Z,17.90
2022-08-05T03:06:54.111Z,17.85
2022-08-05T03:08:49.212Z,17.80
2022-08-05T03:11:56.454Z,17.75
2022-08-05T03:14:08.434Z,17.75
2022-08-05T03:16:35.616Z,17.78
2022-08-05T03:19:12.972Z,17.77
2022-08-05T03:21:50.071Z,17.76
2022-08-05T03:24:29.388Z,17.73
2022-08-05T03:26:56.921Z,17.67
2022-08-05T03:29:23.852Z,17.65
2022-08-05T03:31:56.638Z,17.64
2022-08-05T03:34:24.851Z,17.65
2022-08-05T03:36:53.789Z,17.65
2022-08-05T03:39:26.689Z,17.65
2022-08-05T03:41:56.384Z,17.63
2022-08-05T03:44:23.417Z,17.63
2022-08-05T03:46:49.927Z,17.59
2022-08-05T03:49:16.594Z,17.59
2022-08-05T03:52:38.511Z,17.60
2022-08-05T03:56:04.042Z,17.60
2022-08-05T03:57:53.264Z,17.61
2022-08-05T04:00:20.512Z,17.61
2022-08-05T04:02:58.323Z,17.59
2022-08-05T04:05:33.666Z,17.57
2022-08-05T04:08:03.744Z,17.52
2022-08-05T04:10:37.894Z,17.46
2022-08-05T04:13:06.487Z,17.47
2022-08-05T04:15:36.432Z,17.44
2022-08-05T04:18:06.874Z,17.43
2022-08-05T04:20:33.954Z,17.38
2022-08-05T04:23:00.331Z,17.37
2022-08-05T04:25:57.977Z,17.35
2022-08-05T04:28:13.981Z,17.31
2022-08-05T04:30:41.494Z,17.31
2022-08-05T04:33:09.387Z,17.32
2022-08-05T04:36:11.219Z,17.31
2022-08-05T04:38:22.283Z,17.28
2022-08-05T04:41:06.633Z,17.22
2022-08-05T04:43:33.967Z,17.19
2022-08-05T04:46:00.640Z,17.18
2022-08-05T04:48:28.372Z,17.19
2022-08-05T04:51:02.684Z,17.19
2022-08-05T04:53:36.435Z,17.21
2022-08-05T04:56:33.341Z,17.23
2022-08-05T04:58:52.645Z,17.26
2022-08-05T05:02:06.685Z,17.28
2022-08-05T05:04:05.517Z,17.28
2022-08-05T05:06:36.528Z,17.29
2022-08-05T05:09:17.236Z,17.31
2022-08-05T05:11:55.447Z,17.34
2022-08-05T05:14:27.798Z,17.34
2022-08-05T05:16:58.472Z,17.41
2022-08-05T05:19:27.449Z,17.45
2022-08-05T05:22:22.742Z,17.50
2022-08-05T05:24:56.302Z,17.51
2022-08-05T05:27:24.832Z,17.49
2022-08-05T05:30:09.117Z,17.49
2022-08-05T05:32:55.349Z,17.50
2022-08-05T05:35:21.693Z,17.51
2022-08-05T05:38:01.389Z,17.57
2022-08-05T05:40:32.120Z,17.60
2022-08-05T05:42:59.007Z,17.66
2022-08-05T05:45:25.651Z,17.70
2022-08-05T05:48:06.555Z,17.77
2022-08-05T05:50:41.232Z,17.82
2022-08-05T05:53:22.589Z,17.90
2022-08-05T05:55:51.620Z,17.94
2022-08-05T05:58:31.938Z,17.96
2022-08-05T06:01:12.171Z,17.95
2022-08-05T06:04:00.415Z,17.93
2022-08-05T06:06:28.110Z,17.90
2022-08-05T06:08:57.944Z,17.91
2022-08-05T06:11:24.516Z,17.93
2022-08-05T06:13:54.080Z,17.92
2022-08-05T06:16:30.696Z,17.96
2022-08-05T06:19:02.087Z,17.99
2022-08-05T06:21:37.088Z,18.06
2022-08-05T06:24:06.077Z,18.16
2022-08-05T06:26:35.144Z,18.19
2022-08-05T06:29:03.667Z,18.29
2022-08-05T06:31:33.596Z,18.36
2022-08-05T06:34:07.320Z,18.46
2022-08-05T06:36:37.514Z,18.88
2022-08-05T06:39:21.724Z,19.35
2022-08-05T06:41:49.630Z,19.66
2022-08-05T06:44:18.664Z,19.85
2022-08-05T06:46:50.792Z,19.94
2022-08-05T06:49:18.834Z,20.11
2022-08-05T06:51:48.154Z,20.24
2022-08-05T06:54:19.041Z,20.31
2022-08-05T06:56:54.768Z,20.33
2022-08-05T06:59:38.801Z,20.42
2022-08-05T07:02:08.889Z,20.52
2022-08-05T07:04:35.397Z,20.56
2022-08-05T07:07:03.467Z,20.40
2022-08-05T07:09:37.349Z,20.40
2022-08-05T07:12:07.575Z,20.44
2022-08-05T07:14:34.689Z,20.40
2022-08-05T07:17:59.179Z,20.25
2022-08-05T07:22:35.556Z,20.06
2022-08-05T07:25:23.147Z,20.08
2022-08-05T07:27:57.742Z,20.04
2022-08-05T07:30:32.549Z,19.97
2022-08-05T07:33:05.189Z,19.92
2022-08-05T07:36:02.517Z,19.84
2022-08-05T07:38:32.533Z,19.84
2022-08-05T07:42:08.073Z,19.93
2022-08-05T07:43:57.980Z,19.99
2022-08-05T07:46:30.621Z,20.17
2022-08-05T07:49:03.978Z,20.36
2022-08-05T07:51:48.615Z,20.57
2022-08-05T07:54:21.952Z,20.77
2022-08-05T07:57:13.560Z,20.99
2022-08-05T07:59:40.305Z,21.13
2022-08-05T08:02:17.048Z,21.34
2022-08-05T08:04:48.727Z,21.55
2022-08-05T08:07:16.085Z,21.60
2022-08-05T08:09:44.861Z,21.65
2022-08-05T08:12:35.396Z,21.90
2022-08-05T08:15:02.639Z,22.57
2022-08-05T08:17:30.896Z,23.39
2022-08-05T08:20:43.558Z,23.87
2022-08-05T08:22:43.820Z,24.58
2022-08-05T08:25:16.513Z,25.26
2022-08-05T08:27:45.085Z,26.01
2022-08-05T08:30:29.782Z,26.76
2022-08-05T08:33:02.408Z,27.60
2022-08-05T08:35:34.799Z,28.34
2022-08-05T08:38:07.113Z,28.69
2022-08-05T08:40:35.180Z,29.03
2022-08-05T08:45:04.486Z,29.10
2022-08-05T08:45:52.541Z,28.95
2022-08-05T08:48:36.075Z,28.40
2022-08-05T08:52:02.232Z,27.28
2022-08-05T08:53:54.228Z,26.80
2022-08-05T08:56:22.109Z,26.86
2022-08-05T08:58:49.553Z,26.90
2022-08-05T09:01:18.877Z,26.52
2022-08-05T09:03:54.306Z,26.47
2022-08-05T09:06:24.262Z,26.15
2022-08-05T09:08:56.352Z,25.79
2022-08-05T09:11:52.649Z,25.89
2022-08-05T09:14:57.028Z,26.09
2022-08-05T09:16:59.877Z,26.31
2022-08-05T09:19:27.723Z,26.23
2022-08-05T09:22:23.519Z,25.60
2022-08-05T09:24:41.190Z,24.64
2022-08-05T09:27:09.330Z,24.31
2022-08-05T09:29:44.806Z,23.95
2022-08-05T09:32:51.332Z,23.51
2022-08-05T09:35:09.981Z,23.41
2022-08-05T09:38:16.163Z,23.29
2022-08-05T09:40:37.953Z,23.49
2022-08-05T09:43:05.754Z,24.15
2022-08-05T09:46:06.084Z,24.73
2022-08-05T09:48:32.281Z,24.87
2022-08-05T09:51:04.127Z,24.96
2022-08-05T09:53:54.432Z,25.23
2022-08-05T09:56:30.569Z,25.76
2022-08-05T09:58:57.983Z,26.10
2022-08-05T10:01:32.131Z,26.37
2022-08-05T10:04:10.971Z,26.42
2022-08-05T10:06:54.890Z,26.63
2022-08-05T10:09:29.598Z,27.03
2022-08-05T10:12:18.483Z,27.40
2022-08-05T10:15:13.818Z,27.49
2022-08-05T10:17:47.442Z,26.43
2022-08-05T10:20:23.812Z,25.73
2022-08-05T10:22:52.917Z,25.30
2022-08-05T10:25:19.844Z,24.96
2022-08-05T10:28:13.910Z,24.71
2022-08-05T10:32:46.895Z,24.31
2022-08-05T10:33:25.051Z,24.40
2022-08-05T10:35:59.775Z,24.33
2022-08-05T10:38:28.717Z,24.54
2022-08-05T10:41:13.835Z,24.73
2022-08-05T10:44:04.733Z,24.47
2022-08-05T10:46:50.983Z,24.61
2022-08-05T10:49:27.497Z,24.80
2022-08-05T10:52:02.487Z,24.79
2022-08-05T10:54:56.122Z,25.41
2022-08-05T10:57:29.403Z,26.01
2022-08-05T11:00:18.186Z,25.60
2022-08-05T11:03:23.831Z,25.82
2022-08-05T11:06:14.967Z,26.05
2022-08-05T11:09:10.642Z,25.97
2022-08-05T11:11:44.453Z,25.57
2022-08-05T11:15:01.201Z,25.38
2022-08-05T11:18:00.485Z,25.60
2022-08-05T11:20:32.090Z,26.24
2022-08-05T11:23:05.729Z,26.50
2022-08-05T11:26:04.789Z,25.83
2022-08-05T11:28:21.928Z,25.63
2022-08-05T11:30:55.373Z,25.66
2022-08-05T11:33:43.908Z,25.66
2022-08-05T11:36:34.406Z,25.98
2022-08-05T11:39:08.849Z,26.33
2022-08-05T11:42:01.310Z,25.62
2022-08-05T11:44:53.174Z,24.77
2022-08-05T11:47:15.182Z,24.85
2022-08-05T11:49:58.248Z,24.99
2022-08-05T11:52:29.746Z,25.12
2022-08-05T11:54:58.612Z,25.54
2022-08-05T11:58:08.436Z,25.58
2022-08-05T12:00:29.188Z,24.71
2022-08-05T12:02:57.025Z,24.64
2022-08-05T12:05:36.074Z,24.27
2022-08-05T12:08:10.331Z,24.01
2022-08-05T12:10:45.490Z,23.79
2022-08-05T12:13:16.589Z,23.09
2022-08-05T12:15:45.262Z,23.06
2022-08-05T12:18:32.878Z,23.18
2022-08-05T12:21:10.427Z,23.32
2022-08-05T12:23:36.968Z,23.10
2022-08-05T12:26:09.685Z,22.99
2022-08-05T12:28:37.931Z,22.73
2022-08-05T12:31:05.208Z,23.11
2022-08-05T12:33:36.367Z,23.21
2022-08-05T12:36:08.220Z,23.35
2022-08-05T12:38:37.993Z,23.41
2022-08-05T12:41:13.322Z,23.26
2022-08-05T12:43:58.595Z,23.50
2022-08-05T12:46:29.753Z,23.53
2022-08-05T12:49:13.140Z,23.36
2022-08-05T12:52:13.514Z,22.76
2022-08-05T12:54:33.079Z,22.89
2022-08-05T12:57:01.415Z,22.49
2022-08-05T13:00:08.330Z,22.44
2022-08-05T13:04:54.333Z,22.36
2022-08-05T13:07:57.772Z,22.48
2022-08-05T13:10:15.011Z,22.38
2022-08-05T13:12:51.077Z,22.70
2022-08-05T13:15:42.076Z,22.89
2022-08-05T13:18:19.857Z,22.68
2022-08-05T13:20:47.489Z,22.96
2022-08-05T13:23:16.379Z,22.89
2022-08-05T13:25:52.267Z,23.12
2022-08-05T13:28:26.901Z,22.98
2022-08-05T13:30:53.603Z,22.83
2022-08-05T13:34:22.727Z,22.79
2022-08-05T13:36:09.289Z,22.37
2022-08-05T13:41:05.858Z,22.55
2022-08-05T13:43:44.046Z,22.59
2022-08-05T13:46:30.830Z,22.29
2022-08-05T13:49:09.792Z,22.18
2022-08-05T13:51:40.932Z,21.89
2022-08-05T13:54:12.387Z,21.75
2022-08-05T13:56:45.114Z,21.91
2022-08-05T13:59:20.371Z,21.96
2022-08-05T14:01:58.284Z,21.95
2022-08-05T14:04:43.725Z,21.87
2022-08-05T14:07:25.668Z,21.93
2022-08-05T14:10:03.830Z,22.09
2022-08-05T14:12:32.716Z,22.18
2022-08-05T14:14:59.490Z,22.30
2022-08-05T14:17:25.851Z,22.27
2022-08-05T14:19:56.890Z,22.20
2022-08-05T14:22:30.385Z,22.46
2022-08-05T14:24:57.049Z,22.77
2022-08-05T14:27:24.078Z,22.89
2022-08-05T14:29:54.803Z,22.79
2022-08-05T14:32:26.926Z,22.52
2022-08-05T14:34:53.984Z,22.58
2022-08-05T14:37:23.649Z,22.85
2022-08-05T14:40:10.514Z,23.15
2022-08-05T14:42:44.146Z,22.70
2022-08-05T14:45:10.732Z,22.43
2022-08-05T14:48:05.188Z,22.41
2022-08-05T14:50:25.270Z,22.20
2022-08-05T14:52:56.889Z,22.41
2022-08-05T14:55:26.205Z,22.24
2022-08-05T14:58:11.772Z,22.47
2022-08-05T15:00:59.508Z,22.81
2022-08-05T15:03:33.162Z,23.13
2022-08-05T15:06:07.455Z,23.26
2022-08-05T15:08:59.431Z,22.84
2022-08-05T15:11:51.006Z,22.21
2022-08-05T15:14:33.158Z,21.78
2022-08-05T15:16:59.302Z,21.45
2022-08-05T15:19:26.035Z,21.31
2022-08-05T15:21:52.517Z,21.17
2022-08-05T15:24:18.881Z,21.13
2022-08-05T15:26:46.350Z,21.16
2022-08-05T15:29:15.285Z,20.89
2022-08-05T15:31:41.666Z,20.77
2022-08-05T15:34:31.292Z,20.65
2022-08-05T15:36:54.377Z,20.58
2022-08-05T15:40:58.278Z,20.49
2022-08-05T15:42:55.103Z,20.47
2022-08-05T15:44:53.753Z,20.38
2022-08-05T15:47:23.623Z,20.40
2022-08-05T15:49:56.628Z,20.38
2022-08-05T15:52:51.599Z,20.47
2022-08-05T15:55:15.526Z,20.50
2022-08-05T15:57:43.233Z,20.35
2022-08-05T16:00:12.535Z,20.18
2022-08-05T16:02:43.459Z,20.07
2022-08-05T16:05:11.278Z,20.10
2022-08-05T16:07:37.718Z,20.08
2022-08-05T16:10:04.882Z,20.21
2022-08-05T16:12:36.097Z,20.21
2022-08-05T16:15:04.452Z,20.13
2022-08-05T16:17:31.378Z,20.33
2022-08-05T16:20:04.391Z,20.46
2022-08-05T16:22:37.856Z,20.67
2022-08-05T16:25:05.350Z,20.74
2022-08-05T16:27:59.879Z,20.62
2022-08-05T16:30:26.735Z,20.36
2022-08-05T16:32:55.597Z,20.17
2022-08-05T16:35:28.260Z,19.96
2022-08-05T16:38:15.212Z,19.80
2022-08-05T16:40:48.044Z,19.77
2022-08-05T16:43:22.053Z,19.89
2022-08-05T16:46:05.233Z,19.98
2022-08-05T16:48:37.912Z,20.04
2022-08-05T16:51:09.966Z,20.12
2022-08-05T16:54:06.140Z,20.23
2022-08-05T16:56:30.513Z,20.18
2022-08-05T16:58:58.227Z,20.15
2022-08-05T17:01:25.399Z,20.24
2022-08-05T17:03:52.145Z,20.41
2022-08-05T17:06:19.150Z,20.60
2022-08-05T17:08:52.688Z,20.70
2022-08-05T17:11:25.320Z,20.65
2022-08-05T17:14:00.237Z,20.64
2022-08-05T17:16:36.423Z,20.65
2022-08-05T17:19:03.661Z,20.46
2022-08-05T17:21:35.957Z,20.11
2022-08-05T17:24:27.978Z,19.94
2022-08-05T17:26:54.017Z,19.91
2022-08-05T17:29:22.440Z,19.78
2022-08-05T17:31:59.452Z,19.57
2022-08-05T17:34:29.462Z,19.65
2022-08-05T17:36:55.992Z,19.60
2022-08-05T17:39:24.305Z,19.64
2022-08-05T17:42:19.890Z,19.52
2022-08-05T17:44:42.446Z,19.47
2022-08-05T17:47:17.033Z,19.29
2022-08-05T17:50:00.117Z,19.16
2022-08-05T17:52:34.265Z,19.06
2022-08-05T17:55:03.087Z,18.87
2022-08-05T17:57:29.600Z,18.69
2022-08-05T18:00:05.418Z,18.63
2022-08-05T18:02:35.689Z,18.56
2022-08-05T18:05:06.998Z,18.59
2022-08-05T18:07:41.131Z,18.46
2022-08-05T18:10:10.974Z,18.32
2022-08-05T18:12:37.913Z,18.14
2022-08-05T18:15:05.013Z,18.04
2022-08-05T18:17:58.633Z,17.94
2022-08-05T18:20:18.480Z,17.84
2022-08-05T18:22:53.856Z,17.84
2022-08-05T18:25:21.220Z,17.90
2022-08-05T18:27:52.563Z,17.79
2022-08-05T18:30:19.421Z,17.82
2022-08-05T18:32:53.550Z,17.67
2022-08-05T18:35:49.302Z,17.63
2022-08-05T18:38:13.589Z,17.56
2022-08-05T18:41:57.176Z,17.51
2022-08-05T18:43:31.612Z,17.44
2022-08-05T18:46:05.205Z,17.41
2022-08-05T18:48:33.341Z,17.30
2022-08-05T18:51:01.566Z,17.29
2022-08-05T18:53:50.134Z,17.30
2022-08-05T18:56:16.989Z,17.25
2022-08-05T18:58:48.222Z,17.18
2022-08-05T19:01:17.978Z,17.12
2022-08-05T19:03:55.056Z,17.05
2022-08-05T19:06:34.105Z,16.96
2022-08-05T19:09:04.072Z,16.86
2022-08-05T19:11:37.075Z,16.79
2022-08-05T19:14:44.657Z,16.71
2022-08-05T19:17:03.454Z,16.59
2022-08-05T19:19:32.857Z,16.50
2022-08-05T19:22:00.733Z,16.45
2022-08-05T19:24:34.054Z,16.41
2022-08-05T19:27:03.950Z,16.35
2022-08-05T19:29:35.974Z,16.27
2022-08-05T19:32:11.114Z,16.23
2022-08-05T19:34:38.467Z,16.14
2022-08-05T19:37:05.024Z,16.09
2022-08-05T19:39:31.955Z,16.02
2022-08-05T19:42:15.143Z,15.92
2022-08-05T19:44:45.223Z,15.83
2022-08-05T19:47:15.218Z,15.79
2022-08-05T19:49:42.950Z,15.70
2022-08-05T19:52:31.043Z,15.62
2022-08-05T19:54:57.887Z,15.51
2022-08-05T19:57:47.658Z,15.38
2022-08-05T20:00:13.642Z,15.21
2022-08-05T20:02:39.981Z,15.09
2022-08-05T20:05:09.643Z,14.95
2022-08-05T20:07:48.701Z,14.85
2022-08-05T20:10:17.220Z,14.74
2022-08-05T20:12:48.206Z,14.64
2022-08-05T20:15:48.561Z,14.51
2022-08-05T20:18:03.470Z,14.38
2022-08-05T20:20:30.141Z,14.29
2022-08-05T20:22:56.477Z,14.18
2022-08-05T20:25:24.804Z,14.07
2022-08-05T20:28:00.234Z,13.96
2022-08-05T20:30:27.852Z,13.85
2022-08-05T20:32:54.196Z,13.75
2022-08-05T20:35:20.575Z,13.66
2022-08-05T20:38:05.399Z,13.56
2022-08-05T20:40:33.308Z,13.45
2022-08-05T20:43:00.213Z,13.36
2022-08-05T20:45:56.061Z,13.28
2022-08-05T20:48:13.097Z,13.23
2022-08-05T20:50:45.551Z,13.17
2022-08-05T20:53:16.204Z,13.12
2022-08-05T20:56:08.708Z,13.05
2022-08-05T20:58:35.900Z,12.98
2022-08-05T21:01:04.118Z,12.89
2022-08-05T21:03:30.696Z,12.78
2022-08-05T21:06:01.519Z,12.74
2022-08-05T21:08:41.420Z,12.69
2022-08-05T21:11:51.634Z,12.65
2022-08-05T21:13:59.158Z,12.62
2022-08-05T21:16:30.184Z,12.54
2022-08-05T21:19:00.303Z,12.45
2022-08-05T21:21:39.805Z,12.40
2022-08-05T21:24:12.728Z,12.29
2022-08-05T21:26:40.189Z,12.24
2022-08-05T21:29:07.918Z,12.17
2022-08-05T21:31:41.110Z,12.13
2022-08-05T21:34:08.382Z,12.08
2022-08-05T21:36:37.191Z,12.02
2022-08-05T21:39:03.701Z,11.97
2022-08-05T21:41:33.082Z,11.95
2022-08-05T21:44:03.422Z,11.92
2022-08-05T21:46:32.420Z,11.88
2022-08-05T21:49:01.287Z,11.86
2022-08-05T21:52:16.061Z,11.82
2022-08-05T21:54:13.963Z,11.77
2022-08-05T21:56:44.708Z,11.73
2022-08-05T21:59:24.097Z,11.69
2022-08-05T22:01:54.577Z,11.66
2022-08-05T22:04:25.332Z,11.59
2022-08-05T22:06:52.328Z,11.49
2022-08-05T22:09:21.715Z,11.44
2022-08-05T22:11:48.804Z,11.41
2022-08-05T22:14:35.065Z,11.41
2022-08-05T22:17:05.238Z,11.43
2022-08-05T22:20:03.576Z,11.42
2022-08-05T22:22:26.955Z,11.44
2022-08-05T22:24:55.833Z,11.43
2022-08-05T22:27:22.612Z,11.42
2022-08-05T22:29:49.103Z,11.38
2022-08-05T22:32:20.662Z,11.34
2022-08-05T22:34:49.358Z,11.28
2022-08-05T22:37:15.845Z,11.24
2022-08-05T22:39:42.249Z,11.20
2022-08-05T22:42:15.334Z,11.14
2022-08-05T22:44:48.238Z,11.08
2022-08-05T22:47:28.915Z,11.02
2022-08-05T22:50:20.521Z,10.95
2022-08-05T22:52:42.844Z,10.92
2022-08-05T22:55:19.538Z,10.89
2022-08-05T22:57:46.949Z,10.86
2022-08-05T23:00:17.965Z,10.83
2022-08-05T23:02:47.416Z,10.81
2022-08-05T23:05:18.279Z,10.79
2022-08-05T23:07:48.558Z,10.78
2022-08-05T23:10:19.507Z,10.77
2022-08-05T23:12:47.085Z,10.74
2022-08-05T23:15:13.439Z,10.74
2022-08-05T23:18:00.903Z,10.71
2022-08-05T23:20:26.133Z,10.68
2022-08-05T23:22:56.110Z,10.69
2022-08-05T23:25:54.668Z,10.68
2022-08-05T23:28:10.649Z,10.64
2022-08-05T23:30:40.314Z,10.65
2022-08-05T23:33:15.990Z,10.64
2022-08-05T23:35:45.417Z,10.62
2022-08-05T23:38:12.078Z,10.60
2022-08-05T23:40:38.580Z,10.57
2022-08-05T23:43:11.501Z,10.53
2022-08-05T23:45:51.306Z,10.51
2022-08-05T23:48:17.633Z,10.52
2022-08-05T23:50:46.106Z,10.53
2022-08-05T23:53:22.741Z,10.49
2022-08-05T23:55:49.696Z,10.49
2022-08-05T23:58:32.053Z,10.42
